Time;durP1;ratioP1;P1;durP2;ratioP2;P2;SDS_P1;SDS_P2;PMS_P1;PMS_P2;Temp;Humidity;BMP_temperature;BMP_pressure;BME280_temperature;BME280_humidity;BME280_pressure;Samples;Min_cycle;Max_cycle;Signal;HPM_P1;HPM_P2
2024/03/10 00:00:20;;;;;;;17.50;11.30;;;;;;;8.04;100.00;98562.59;5111032;27;20751;-72
2024/03/10 00:02:51;;;;;;;18.45;11.27;;;;;;;8.01;100.00;98567.25;5102506;27;20194;-71
2024/03/10 00:05:24;;;;;;;16.83;11.32;;;;;;;7.96;100.00;98564.91;5117158;27;20047;-71
2024/03/10 00:07:51;;;;;;;16.02;10.75;;;;;;;7.91;100.00;98561.72;5099693;27;20042;-72
2024/03/10 00:10:19;;;;;;;15.07;11.35;;;;;;;7.87;100.00;98564.69;5078241;27;20654;-72
2024/03/10 00:12:48;;;;;;;18.10;11.55;;;;;;;7.83;100.00;98571.09;5097830;27;20112;-70
2024/03/10 00:15:19;;;;;;;17.15;11.40;;;;;;;7.68;100.00;98551.84;5100053;27;20047;-73
2024/03/10 00:17:48;;;;;;;17.05;11.70;;;;;;;7.76;100.00;98581.16;5099690;27;20036;-72
2024/03/10 00:20:20;;;;;;;16.35;11.80;;;;;;;7.75;100.00;98576.84;5093107;27;20119;-70
2024/03/10 00:22:50;;;;;;;17.40;11.13;;;;;;;7.71;100.00;98591.97;5090007;27;20379;-71
2024/03/10 00:25:21;;;;;;;17.38;11.35;;;;;;;7.64;100.00;98590.69;5120627;27;20792;-72
2024/03/10 00:27:50;;;;;;;16.67;11.23;;;;;;;7.49;100.00;98564.50;5082240;27;20104;-71
2024/03/10 00:30:18;;;;;;;19.00;12.27;;;;;;;7.50;100.00;98572.28;5108551;27;20611;-71
2024/03/10 00:32:46;;;;;;;17.65;11.43;;;;;;;7.55;100.00;98587.81;5072185;27;20512;-71
2024/03/10 00:35:14;;;;;;;16.95;11.68;;;;;;;7.01;100.00;98506.09;5127669;27;20088;-70
2024/03/10 00:37:43;;;;;;;19.67;11.95;;;;;;;7.44;100.00;98587.63;5091067;27;20108;-71
2024/03/10 00:40:14;;;;;;;18.85;12.30;;;;;;;7.47;100.00;98587.44;5096511;27;20210;-71
2024/03/10 00:42:43;;;;;;;19.40;12.05;;;;;;;7.47;100.00;98582.16;5098251;27;20031;-70
2024/03/10 00:45:12;;;;;;;18.13;11.75;;;;;;;7.36;100.00;98574.97;5119437;27;20047;-72
2024/03/10 00:47:40;;;;;;;18.70;12.20;;;;;;;7.21;100.00;98553.06;5099902;27;20134;-71
2024/03/10 00:50:09;;;;;;;18.00;12.32;;;;;;;7.36;100.00;98567.06;5092315;27;20125;-71
2024/03/10 00:52:38;;;;;;;17.88;11.85;;;;;;;7.32;100.00;98563.75;5099342;27;20092;-71
2024/03/10 00:55:07;;;;;;;17.42;11.82;;;;;;;7.32;100.00;98569.03;5101401;27;20055;-69
2024/03/10 00:57:37;;;;;;;18.58;11.32;;;;;;;7.21;100.00;98558.34;5093465;27;20051;-70
2024/03/10 01:00:09;;;;;;;17.75;11.73;;;;;;;7.35;100.00;98568.84;5110308;27;20051;-68
2024/03/10 01:02:37;;;;;;;18.80;11.73;;;;;;;7.30;100.00;98559.53;5102142;27;20512;-72
2024/03/10 01:05:07;;;;;;;15.75;10.75;;;;;;;7.45;100.00;98573.53;5099070;27;20573;-70
2024/03/10 01:07:35;;;;;;;21.00;11.73;;;;;;;7.34;100.00;98548.72;5068111;27;21737;-69
2024/03/10 01:10:07;;;;;;;19.15;11.20;;;;;;;7.40;100.00;98565.91;5091623;27;20044;-71
2024/03/10 01:12:36;;;;;;;16.58;10.80;;;;;;;7.34;100.00;98556.63;5085709;27;20043;-71
2024/03/10 01:15:05;;;;;;;17.70;11.05;;;;;;;7.32;100.00;98563.75;5117920;27;20043;-71
2024/03/10 01:17:33;;;;;;;16.35;10.90;;;;;;;7.30;100.00;98554.25;5074945;27;20051;-71
2024/03/10 01:20:03;;;;;;;16.42;10.70;;;;;;;7.23;100.00;98550.34;5079856;27;20073;-70
2024/03/10 01:22:32;;;;;;;16.95;11.23;;;;;;;7.20;100.00;98561.91;5101139;27;20484;-72
2024/03/10 01:25:00;;;;;;;16.88;10.95;;;;;;;7.29;100.00;98578.91;5116506;27;20136;-71
2024/03/10 01:27:28;;;;;;;18.25;11.23;;;;;;;7.25;100.00;98580.03;5095845;27;20419;-72
2024/03/10 01:29:59;;;;;;;16.60;11.15;;;;;;;7.23;100.00;98574.88;5094258;27;20055;-71
2024/03/10 01:32:27;;;;;;;16.45;11.40;;;;;;;7.23;100.00;98566.13;5124690;27;20035;-70
2024/03/10 01:34:55;;;;;;;17.10;11.35;;;;;;;7.10;100.00;98538.88;5100972;27;20049;-70
2024/03/10 01:37:23;;;;;;;16.05;11.07;;;;;;;7.21;100.00;98558.34;5099378;27;20168;-72
2024/03/10 01:39:51;;;;;;;16.27;11.05;;;;;;;7.23;100.00;98550.34;5112853;27;20047;-71
2024/03/10 01:42:19;;;;;;;15.40;10.40;;;;;;;7.06;100.00;98524.22;5099123;27;20126;-72
2024/03/10 01:44:47;;;;;;;19.80;11.07;;;;;;;7.19;100.00;98549.69;5116477;27;20053;-71
2024/03/10 01:47:16;;;;;;;17.67;10.93;;;;;;;7.18;100.00;98553.25;5100694;27;20096;-72
2024/03/10 01:49:44;;;;;;;17.83;11.30;;;;;;;7.17;100.00;98546.28;5075932;27;20050;-71
2024/03/10 01:52:13;;;;;;;19.00;10.88;;;;;;;7.18;100.00;98545.34;5093173;27;20039;-73
2024/03/10 01:54:41;;;;;;;16.65;11.60;;;;;;;7.19;100.00;98535.69;5097889;27;20051;-71
2024/03/10 01:57:09;;;;;;;18.00;10.90;;;;;;;7.08;100.00;98522.34;5083581;27;20051;-70
2024/03/10 01:59:39;;;;;;;17.75;11.23;;;;;;;7.18;100.00;98532.19;5093344;27;20039;-71
2024/03/10 02:02:07;;;;;;;17.65;11.07;;;;;;;7.16;100.00;98538.50;5095198;28;20047;-71
2024/03/10 02:04:39;;;;;;;16.85;10.77;;;;;;;7.00;100.00;98522.81;5093527;28;20112;-70
2024/03/10 02:07:10;;;;;;;;;;;;;;;7.11;100.00;98543.19;5087553;27;20043;-71
2024/03/10 02:09:39;;;;;;;16.45;11.07;;;;;;;7.09;100.00;98535.38;5114996;27;19975;-72
2024/03/10 02:12:09;;;;;;;15.90;10.98;;;;;;;7.12;100.00;98539.63;5080452;28;20066;-72
2024/03/10 02:14:38;;;;;;;14.95;11.13;;;;;;;7.12;100.00;98535.19;5100664;27;20121;-72
2024/03/10 02:17:10;;;;;;;17.92;11.48;;;;;;;7.11;100.00;98533.50;5099340;28;20135;-71
2024/03/10 02:19:39;;;;;;;16.98;11.18;;;;;;;7.10;100.00;98537.06;5113578;27;21673;-70
2024/03/10 02:22:08;;;;;;;17.05;11.50;;;;;;;7.09;100.00;98527.50;5106582;27;20091;-71
2024/03/10 02:24:43;;;;;;;17.40;11.43;;;;;;;7.07;100.00;98529.41;5114837;27;20047;-71
2024/03/10 02:27:16;;;;;;;17.17;11.57;;;;;;;6.98;100.00;98516.78;5083127;28;20043;-72
2024/03/10 02:30:00;;;;;;;17.60;11.63;;;;;;;7.07;100.00;98521.50;5112343;27;20083;-70
2024/03/10 02:49:06;;;;;;;17.95;11.38;;;;;;;6.89;100.00;98509.47;5104380;27;20047;-71
2024/03/10 02:51:36;;;;;;;16.52;11.25;;;;;;;6.87;100.00;98496.41;5090400;27;20579;-71
2024/03/10 02:54:04;;;;;;;16.33;11.38;;;;;;;6.84;100.00;98487.88;5082646;28;20035;-72
2024/03/10 02:56:33;;;;;;;17.05;11.82;;;;;;;6.72;100.00;98473.69;5096299;27;20049;-71
2024/03/10 02:59:02;;;;;;;18.98;11.55;;;;;;;6.86;100.00;98483.34;5096428;27;20051;-72
2024/03/10 03:01:31;;;;;;;18.85;11.73;;;;;;;6.86;100.00;98470.19;5099102;27;21093;-73
2024/03/10 03:03:58;;;;;;;15.48;10.95;;;;;;;6.89;100.00;98473.50;5121460;27;20054;-73
2024/03/10 03:06:27;;;;;;;16.67;10.48;;;;;;;6.86;100.00;98462.31;5103803;27;20074;-73
2024/03/10 03:08:58;;;;;;;15.90;10.73;;;;;;;6.84;100.00;98461.56;5126140;27;20055;-70
2024/03/10 03:11:26;;;;;;;18.02;11.07;;;;;;;6.88;100.00;98466.53;5110312;27;20051;-70
2024/03/10 03:13:54;;;;;;;15.73;10.80;;;;;;;6.89;100.00;98464.75;5104025;27;20043;-73
2024/03/10 03:16:24;;;;;;;16.20;11.00;;;;;;;6.93;100.00;98464.44;5119617;27;20044;-71
2024/03/10 03:18:52;;;;;;;13.50;9.70;;;;;;;6.68;100.00;98406.44;5093014;27;20035;-70
2024/03/10 03:21:19;;;;;;;17.45;11.38;;;;;;;7.00;100.00;98459.66;5110687;27;20182;-71
2024/03/10 03:23:49;;;;;;;18.42;11.52;;;;;;;7.01;100.00;98451.66;5107285;27;20500;-72
2024/03/10 03:26:19;;;;;;;18.52;11.45;;;;;;;7.07;100.00;98442.53;5124053;27;20047;-72
2024/03/10 03:28:48;;;;;;;17.83;10.95;;;;;;;6.74;100.00;98397.31;5114158;27;20039;-71
2024/03/10 03:31:17;;;;;;;16.40;10.57;;;;;;;7.07;100.00;98441.69;5098686;27;20044;-70
2024/03/10 03:33:47;;;;;;;15.98;10.98;;;;;;;7.02;100.00;98437.56;5118069;27;20062;-72
2024/03/10 03:36:14;;;;;;;15.05;10.43;;;;;;;7.02;100.00;98439.34;5103670;27;20080;-70
2024/03/10 03:38:44;;;;;;;17.30;11.05;;;;;;;7.03;100.00;98425.25;5116429;27;20548;-72
2024/03/10 03:41:12;;;;;;;16.73;11.30;;;;;;;7.03;100.00;98412.94;5079813;27;20125;-70
2024/03/10 03:43:41;;;;;;;15.85;10.48;;;;;;;7.05;100.00;98418.13;5101009;27;20407;-70
2024/03/10 03:46:09;;;;;;;15.63;11.23;;;;;;;6.86;100.00;98386.00;5102966;27;20050;-71
2024/03/10 03:48:36;;;;;;;17.70;11.73;;;;;;;6.76;100.00;98372.63;5101287;27;20092;-69
2024/03/10 03:51:06;;;;;;;16.10;11.35;;;;;;;7.03;100.00;98410.31;5094564;27;20043;-71
2024/03/10 03:53:34;;;;;;;15.77;10.50;;;;;;;7.01;100.00;98409.56;5116541;27;20040;-71
2024/03/10 03:56:02;;;;;;;17.58;11.27;;;;;;;7.00;100.00;98405.25;5108640;27;20054;-70
2024/03/10 03:58:30;;;;;;;17.70;10.85;;;;;;;7.01;100.00;98411.34;5110277;27;20049;-71
2024/03/10 04:00:58;;;;;;;17.85;11.27;;;;;;;6.74;100.00;98363.13;5094050;27;20543;-71
2024/03/10 04:03:26;;;;;;;16.88;11.45;;;;;;;7.06;100.00;98406.66;5091325;27;20067;-72
2024/03/10 04:05:53;;;;;;;17.05;10.93;;;;;;;7.07;100.00;98403.06;5082433;27;20051;-69
2024/03/10 04:08:22;;;;;;;19.85;11.77;;;;;;;6.91;100.00;98373.41;5118066;27;20096;-71
2024/03/10 04:10:51;;;;;;;17.90;11.75;;;;;;;6.82;100.00;98368.72;5098611;27;20043;-68
2024/03/10 04:13:21;;;;;;;19.08;11.20;;;;;;;6.89;100.00;98381.41;5117538;27;20055;-71
2024/03/10 04:15:49;;;;;;;18.77;11.95;;;;;;;6.90;100.00;98393.63;5117355;27;20126;-72
2024/03/10 04:18:19;;;;;;;19.48;12.10;;;;;;;6.86;100.00;98386.00;5122665;27;20042;-73
2024/03/10 04:20:48;;;;;;;18.48;12.00;;;;;;;6.83;100.00;98386.19;5090881;27;20320;-71
2024/03/10 04:23:16;;;;;;;18.73;11.90;;;;;;;6.80;100.00;98383.75;5104508;27;20273;-73
2024/03/10 04:25:46;;;;;;;19.25;12.48;;;;;;;6.75;100.00;98372.72;5100614;27;20046;-71
2024/03/10 04:28:13;;;;;;;20.92;12.98;;;;;;;6.78;100.00;98378.59;5100767;27;20062;-71
2024/03/10 04:30:42;;;;;;;20.48;13.07;;;;;;;6.81;100.00;98370.50;5113998;27;20100;-69
2024/03/10 04:33:11;;;;;;;17.75;12.23;;;;;;;6.80;100.00;98366.19;5098857;27;20508;-73
2024/03/10 04:35:39;;;;;;;19.45;12.15;;;;;;;6.77;100.00;98366.38;5071870;27;20077;-71
2024/03/10 04:38:07;;;;;;;18.13;12.10;;;;;;;6.67;100.00;98363.50;5115710;27;20704;-72
2024/03/10 04:40:35;;;;;;;21.20;12.55;;;;;;;6.78;100.00;98367.22;5097570;27;20420;-71
2024/03/10 04:43:04;;;;;;;17.38;11.95;;;;;;;6.76;100.00;98366.50;5081450;27;21162;-70
2024/03/10 04:45:32;;;;;;;19.23;12.30;;;;;;;6.72;100.00;98350.06;5097288;27;20047;-71
2024/03/10 04:48:00;;;;;;;18.27;12.38;;;;;;;6.62;100.00;98331.38;5100784;27;20043;-73
2024/03/10 04:50:31;;;;;;;20.73;12.82;;;;;;;6.69;100.00;98335.31;5098308;27;20083;-69
2024/03/10 04:52:59;;;;;;;18.67;13.55;;;;;;;6.65;100.00;98335.59;5093381;27;20053;-71
2024/03/10 04:55:26;;;;;;;18.08;12.80;;;;;;;6.60;100.00;98325.41;5098678;27;20050;-72
2024/03/10 04:57:57;;;;;;;18.60;12.68;;;;;;;6.66;100.00;98327.63;5099238;27;20065;-70
2024/03/10 05:00:26;;;;;;;20.33;13.18;;;;;;;6.65;100.00;98327.72;5099321;27;20404;-72
2024/03/10 05:02:54;;;;;;;20.77;12.40;;;;;;;6.65;100.00;98320.66;5077667;27;20059;-71
2024/03/10 05:05:22;;;;;;;21.02;12.38;;;;;;;6.62;100.00;98320.03;5069570;27;20727;-72
2024/03/10 05:07:51;;;;;;;19.15;11.82;;;;;;;6.59;100.00;98310.56;5101174;27;20042;-71
2024/03/10 05:10:20;;;;;;;18.43;12.37;;;;;;;6.57;100.00;98301.94;5117139;27;20134;-71
2024/03/10 05:12:48;;;;;;;19.95;13.30;;;;;;;6.46;100.00;98314.03;5094153;27;20659;-71
2024/03/10 05:15:17;;;;;;;19.73;12.35;;;;;;;6.47;100.00;98321.84;5105434;27;20134;-71
2024/03/10 05:17:46;;;;;;;19.83;13.00;;;;;;;6.46;100.00;98325.41;5111434;27;20043;-71
2024/03/10 05:20:17;;;;;;;19.50;12.32;;;;;;;6.45;100.00;98336.06;5101796;27;20043;-69
2024/03/10 05:22:45;;;;;;;;;;;;;;;6.41;100.00;98338.00;5110251;27;20044;-72
2024/03/10 05:25:14;;;;;;;20.55;12.60;;;;;;;6.37;100.00;98344.41;5115136;27;19919;-71
2024/03/10 05:27:42;;;;;;;21.20;13.45;;;;;;;6.10;100.00;98301.44;5114838;27;20058;-72
2024/03/10 05:30:11;;;;;;;21.65;13.07;;;;;;;6.27;100.00;98331.00;5092254;27;20061;-71
2024/03/10 05:32:39;;;;;;;21.98;13.57;;;;;;;6.21;100.00;98338.41;5093153;27;20074;-72
2024/03/10 05:35:09;;;;;;;20.23;13.00;;;;;;;6.14;100.00;98337.94;5098616;27;20047;-70
2024/03/10 05:37:37;;;;;;;;;;;;;;;6.07;100.00;98336.63;5116211;27;20120;-71
2024/03/10 05:40:06;;;;;;;20.30;13.40;;;;;;;6.00;100.00;98340.56;5100053;27;19985;-70
2024/03/10 05:42:34;;;;;;;21.23;13.60;;;;;;;5.98;100.00;98356.41;5094792;27;20046;-72
2024/03/10 05:45:03;;;;;;;23.30;13.57;;;;;;;5.87;100.00;98353.56;5116407;27;20107;-71
2024/03/10 05:47:31;;;;;;;19.58;13.30;;;;;;;5.48;100.00;98313.94;5098470;27;20056;-71
2024/03/10 05:49:59;;;;;;;22.20;13.45;;;;;;;5.82;100.00;98370.56;5096019;27;20115;-71
2024/03/10 05:52:29;;;;;;;19.63;12.82;;;;;;;5.74;100.00;98363.13;5072009;27;20064;-70
2024/03/10 05:54:56;;;;;;;21.67;13.48;;;;;;;5.91;100.00;98383.16;5095958;27;20046;-70
2024/03/10 05:57:24;;;;;;;20.30;13.35;;;;;;;5.94;100.00;98375.94;5117598;27;21606;-73
2024/03/10 05:59:56;;;;;;;22.25;13.43;;;;;;;5.97;100.00;98386.28;5114833;27;20075;-69
2024/03/10 06:02:23;;;;;;;20.90;12.98;;;;;;;5.97;100.00;98388.91;5112406;27;20081;-69
2024/03/10 06:04:52;;;;;;;19.67;13.07;;;;;;;5.98;100.00;98381.88;5097056;27;20047;-71
2024/03/10 06:07:20;;;;;;;21.27;13.68;;;;;;;6.01;100.00;98354.53;5117169;27;20131;-71
2024/03/10 06:09:49;;;;;;;21.13;13.13;;;;;;;6.02;100.00;98353.59;5095306;27;20595;-71
2024/03/10 06:12:19;;;;;;;21.00;13.45;;;;;;;6.02;100.00;98350.97;5091261;27;20043;-71
2024/03/10 06:14:47;;;;;;;21.23;13.88;;;;;;;6.02;100.00;98335.22;5113542;27;20035;-71
2024/03/10 06:17:16;;;;;;;20.60;13.15;;;;;;;6.08;100.00;98337.47;5116030;27;20074;-71
2024/03/10 06:25:27;;;;;;;19.77;13.00;;;;;;;6.31;100.00;98319.34;5117147;27;20039;-73
2024/03/10 06:27:57;;;;;;;23.73;13.15;;;;;;;6.36;100.00;98324.31;5118920;27;20650;-70
2024/03/10 06:30:26;;;;;;;19.80;13.40;;;;;;;6.36;100.00;98324.31;5120933;27;20039;-73
2024/03/10 06:32:54;;;;;;;20.50;12.98;;;;;;;6.40;100.00;98331.06;5110483;27;20047;-73
2024/03/10 06:35:22;;;;;;;19.55;13.25;;;;;;;6.54;100.00;98372.28;5129970;27;20035;-71
2024/03/10 06:37:50;;;;;;;18.67;12.68;;;;;;;6.58;100.00;98382.50;5118260;27;20452;-71
2024/03/10 06:40:21;;;;;;;21.80;13.80;;;;;;;6.64;100.00;98381.25;5120726;27;20058;-70
2024/03/10 06:42:50;;;;;;;20.52;13.05;;;;;;;6.20;100.00;98306.03;5108831;27;20058;-71
2024/03/10 06:45:17;;;;;;;19.38;13.40;;;;;;;6.59;100.00;98373.69;5120967;27;20511;-72
2024/03/10 06:47:46;;;;;;;20.70;13.43;;;;;;;6.68;100.00;98391.50;5118244;27;20096;-72
2024/03/10 06:50:15;;;;;;;19.38;12.27;;;;;;;6.57;100.00;98369.44;5104060;27;20161;-71
2024/03/10 06:52:45;;;;;;;21.42;13.55;;;;;;;6.68;100.00;98391.50;5113855;27;20176;-70
2024/03/10 06:55:14;;;;;;;20.60;13.63;;;;;;;6.68;100.00;98388.03;5119262;27;20050;-71
2024/03/10 06:57:43;;;;;;;20.25;13.30;;;;;;;6.66;100.00;98396.00;5120183;27;20079;-72
2024/03/10 07:00:14;;;;;;;23.00;13.25;;;;;;;6.32;100.00;98333.31;5119767;27;21045;-71
2024/03/10 07:02:45;;;;;;;19.75;13.43;;;;;;;6.63;100.00;98380.41;5110051;27;20069;-71
2024/03/10 07:05:14;;;;;;;19.95;13.82;;;;;;;6.58;100.00;98365.88;5136881;27;20032;-70
2024/03/10 07:07:43;;;;;;;20.30;13.10;;;;;;;6.74;100.00;98381.53;5116190;27;20166;-72
2024/03/10 07:10:12;;;;;;;21.15;13.65;;;;;;;6.81;100.00;98393.34;5120365;27;20058;-71
2024/03/10 07:12:40;;;;;;;20.35;13.70;;;;;;;6.55;100.00;98345.88;5113445;27;20127;-72
2024/03/10 07:15:10;;;;;;;21.38;13.00;;;;;;;6.92;100.00;98398.78;5085297;28;20651;-70
2024/03/10 07:17:41;;;;;;;20.27;13.35;;;;;;;7.02;100.00;98411.25;5081447;27;20062;-72
2024/03/10 07:20:10;;;;;;;20.85;13.02;;;;;;;6.69;100.00;98323.97;5081993;28;20047;-71
2024/03/10 07:22:41;;;;;;;20.75;14.50;;;;;;;6.90;100.00;98348.91;5067573;27;20051;-70
2024/03/10 07:25:10;;;;;;;19.67;13.65;;;;;;;7.27;100.00;98388.59;5103057;27;20044;-70
2024/03/10 07:27:40;;;;;;;21.45;13.70;;;;;;;7.31;100.00;98396.19;5082976;28;20405;-70
2024/03/10 07:30:10;;;;;;;22.05;14.32;;;;;;;7.36;100.00;98386.22;5081676;28;20127;-72
2024/03/10 07:32:42;;;;;;;19.90;14.10;;;;;;;7.40;100.00;98392.94;5075792;27;20044;-71
2024/03/10 07:35:12;;;;;;;19.83;12.93;;;;;;;7.41;100.00;98388.53;5098092;27;20055;-72
2024/03/10 07:37:40;;;;;;;19.85;13.65;;;;;;;7.40;100.00;98408.75;5066936;28;20036;-70
2024/03/10 07:40:16;;;;;;;18.90;13.27;;;;;;;7.33;100.00;98394.31;5108405;27;20098;-70
2024/03/10 07:42:45;;;;;;;21.20;13.95;;;;;;;7.48;100.00;98404.78;5076105;28;20047;-71
2024/03/10 07:45:17;;;;;;;23.10;14.10;;;;;;;7.50;100.00;98414.28;5097703;27;20043;-72
2024/03/10 07:47:47;;;;;;;19.77;13.40;;;;;;;7.53;100.00;98418.50;5081158;28;20061;-71
2024/03/10 07:50:19;;;;;;;23.48;13.63;;;;;;;7.28;100.00;98380.59;5100065;27;20044;-70
2024/03/10 07:52:47;;;;;;;21.27;13.88;;;;;;;7.57;100.00;98422.59;5085231;27;20503;-70
2024/03/10 07:55:16;;;;;;;20.95;13.30;;;;;;;7.61;100.00;98416.19;5082579;28;20548;-70
2024/03/10 07:57:44;;;;;;;22.13;14.02;;;;;;;7.30;100.00;98348.91;5085020;27;20089;-71
2024/03/10 08:00:16;;;;;;;21.88;14.18;;;;;;;7.69;100.00;98382.28;5080376;28;20052;-70
2024/03/10 08:02:44;;;;;;;22.15;14.02;;;;;;;7.72;100.00;98379.44;5073373;28;20135;-71
2024/03/10 08:05:13;;;;;;;24.25;14.50;;;;;;;7.76;100.00;98386.19;5081616;28;20054;-72
2024/03/10 08:07:41;;;;;;;22.13;13.75;;;;;;;7.77;100.00;98377.34;5098762;27;20055;-72
2024/03/10 08:10:13;;;;;;;20.65;13.02;;;;;;;7.79;100.00;98350.88;5080107;28;20075;-71
2024/03/10 08:12:43;;;;;;;22.77;13.75;;;;;;;7.74;100.00;98328.31;5074574;28;20071;-72
2024/03/10 08:15:11;;;;;;;22.23;13.70;;;;;;;7.66;100.00;98306.94;5099429;27;20040;-72
2024/03/10 08:17:42;;;;;;;22.10;14.25;;;;;;;7.04;100.00;98184.84;5080485;28;20044;-70
2024/03/10 08:20:13;;;;;;;21.90;14.63;;;;;;;7.87;100.00;98336.22;5073755;28;20424;-72
2024/03/10 08:22:45;;;;;;;20.88;13.77;;;;;;;7.84;100.00;98317.19;5069415;27;20039;-71
2024/03/10 08:25:13;;;;;;;22.10;14.30;;;;;;;7.68;100.00;98288.41;5083797;28;20066;-74
2024/03/10 08:27:43;;;;;;;22.48;14.75;;;;;;;7.85;100.00;98303.06;5097546;27;20054;-72
2024/03/10 08:30:15;;;;;;;22.85;14.73;;;;;;;7.99;100.00;98316.97;5095311;27;20047;-70
2024/03/10 08:32:46;;;;;;;21.90;14.65;;;;;;;7.97;100.00;98297.78;5054307;27;20553;-70
2024/03/10 08:35:17;;;;;;;;;;;;;;;7.91;100.00;98307.88;5071405;28;20463;-72
2024/03/10 08:37:46;;;;;;;24.42;15.27;;;;;;;7.78;100.00;98307.03;5099573;27;19931;-71
2024/03/10 08:40:18;;;;;;;20.85;14.52;;;;;;;7.65;100.00;98283.34;5081380;28;20079;-72
2024/03/10 08:42:46;;;;;;;20.00;14.25;;;;;;;7.80;100.00;98311.25;5076569;28;20139;-71
2024/03/10 08:45:15;;;;;;;22.48;14.52;;;;;;;7.76;100.00;98309.78;5078902;28;20044;-71
2024/03/10 08:47:48;;;;;;;23.77;14.93;;;;;;;7.79;100.00;98308.72;5065435;28;20412;-72
2024/03/10 08:50:16;;;;;;;20.38;14.30;;;;;;;7.89;100.00;98305.34;5093152;27;20082;-71
2024/03/10 08:52:44;;;;;;;21.63;14.57;;;;;;;7.98;100.00;98306.53;5070322;28;20040;-72
2024/03/10 08:55:15;;;;;;;20.15;14.50;;;;;;;8.20;100.00;98311.97;5095937;27;20040;-70
2024/03/10 08:57:43;;;;;;;23.42;15.38;;;;;;;7.93;100.00;98246.22;5061274;27;20028;-71
2024/03/10 09:00:13;;;;;;;20.98;14.27;;;;;;;8.16;100.00;98268.34;5079632;28;20054;-71
2024/03/10 09:02:41;;;;;;;22.03;14.93;;;;;;;8.33;100.00;98294.38;5072693;27;20067;-73
2024/03/10 09:05:12;;;;;;;22.00;14.38;;;;;;;8.56;100.00;98316.47;5097481;27;20090;-71
2024/03/10 09:07:42;;;;;;;22.77;15.32;;;;;;;7.97;100.00;98202.91;5075621;27;22821;-71
2024/03/10 09:10:10;;;;;;;20.77;14.77;;;;;;;8.85;100.00;98316.13;5078634;28;20050;-69
2024/03/10 09:12:39;;;;;;;21.13;14.35;;;;;;;8.97;100.00;98326.63;5088352;27;20058;-70
2024/03/10 09:15:09;;;;;;;23.30;14.43;;;;;;;9.00;100.00;98302.66;5112743;27;20050;-72
2024/03/10 09:17:38;;;;;;;19.95;14.38;;;;;;;9.19;100.00;98314.50;5112595;27;20170;-72
2024/03/10 09:20:11;;;;;;;21.45;14.63;;;;;;;9.26;100.00;98321.88;5115875;27;20038;-73
2024/03/10 09:22:42;;;;;;;21.27;14.82;;;;;;;9.29;100.00;98316.34;5094598;27;20070;-70
2024/03/10 09:25:20;;;;;;;20.58;15.07;;;;;;;9.49;100.00;98328.91;5118032;27;20039;-71
2024/03/10 09:27:51;;;;;;;22.27;14.82;;;;;;;9.63;100.00;98329.66;5119085;27;20051;-71
2024/03/10 09:30:21;;;;;;;21.30;14.80;;;;;;;9.76;100.00;98331.25;5111543;27;20344;-71
2024/03/10 09:32:54;;;;;;;22.10;14.75;;;;;;;9.42;100.00;98268.75;5110959;27;20081;-72
2024/03/10 09:35:24;;;;;;;23.13;14.73;;;;;;;9.90;100.00;98308.22;5111731;27;20043;-71
2024/03/10 09:37:58;;;;;;;25.42;15.35;;;;;;;9.99;100.00;98311.00;5115269;27;20036;-72
2024/03/10 09:40:29;;;;;;;23.55;15.93;;;;;;;10.13;100.00;98304.63;5116149;27;20068;-70
2024/03/10 09:42:57;;;;;;;22.05;15.43;;;;;;;10.21;100.00;98304.06;5111122;27;20551;-71
2024/03/10 09:45:28;;;;;;;20.80;15.20;;;;;;;10.31;100.00;98311.16;5124776;27;20092;-71
2024/03/10 09:47:58;;;;;;;23.33;16.02;;;;;;;10.16;99.14;98294.66;5116816;27;20043;-69
2024/03/10 09:50:29;;;;;;;21.35;15.65;;;;;;;10.21;100.00;98296.97;5116608;27;20054;-70
2024/03/10 09:53:01;;;;;;;25.17;16.20;;;;;;;10.05;99.40;98251.50;5108234;27;20478;-71
2024/03/10 09:55:31;;;;;;;21.48;15.50;;;;;;;10.04;98.59;98261.25;5107414;27;20051;-69
2024/03/10 09:58:10;;;;;;;21.65;14.57;;;;;;;10.30;99.76;98290.09;5107400;27;20068;-72
2024/03/10 10:00:39;;;;;;;21.90;15.00;;;;;;;10.33;98.69;98272.19;5123433;27;20508;-70
2024/03/10 10:03:16;;;;;;;20.98;15.25;;;;;;;10.43;99.00;98277.56;5114248;27;20059;-70
2024/03/10 10:05:46;;;;;;;21.45;15.40;;;;;;;10.42;98.43;98287.31;5114603;27;20115;-72
2024/03/10 10:08:18;;;;;;;;;;;;;;;10.52;98.78;98287.44;5140768;27;20433;-67
2024/03/10 10:10:49;;;;;;;22.45;15.32;;;;;;;10.58;97.74;98276.34;5135650;27;19930;-68
2024/03/10 10:13:24;;;;;;;22.25;16.13;;;;;;;10.68;98.02;98272.00;5112269;27;20061;-68
2024/03/10 10:15:54;;;;;;;23.42;15.98;;;;;;;10.75;96.86;98270.53;5116552;27;20045;-71
2024/03/10 10:18:23;;;;;;;23.13;14.95;;;;;;;10.86;96.65;98265.19;5119880;27;20091;-71
2024/03/10 10:20:58;;;;;;;20.35;14.80;;;;;;;11.06;95.31;98279.44;5133129;27;20127;-71
2024/03/10 10:23:30;;;;;;;21.27;16.27;;;;;;;11.23;91.50;98270.09;5093626;27;20171;-69
2024/03/10 10:26:09;;;;;;;21.42;15.40;;;;;;;11.33;90.95;98268.41;5128329;27;20044;-71
2024/03/10 10:28:41;;;;;;;21.33;15.57;;;;;;;11.44;89.73;98257.72;5121583;27;20043;-71
2024/03/10 10:31:11;;;;;;;23.33;15.88;;;;;;;11.52;87.53;98257.06;5104100;27;20146;-71
2024/03/10 10:33:41;;;;;;;22.30;15.90;;;;;;;11.70;87.87;98266.09;5115902;27;20048;-71
2024/03/10 10:36:09;;;;;;;26.65;15.85;;;;;;;11.31;84.21;98169.63;5109512;27;20047;-70
2024/03/10 10:38:44;;;;;;;21.98;15.70;;;;;;;11.81;83.32;98263.41;5119499;27;20063;-69
2024/03/10 10:41:12;;;;;;;22.30;15.55;;;;;;;11.90;79.83;98291.81;5121489;27;20092;-70
2024/03/10 10:43:42;;;;;;;21.25;15.93;;;;;;;11.78;82.91;98300.81;5110677;27;20279;-70
2024/03/10 10:46:12;;;;;;;22.90;15.80;;;;;;;11.69;85.49;98295.41;5123271;27;20043;-70
2024/03/10 10:48:40;;;;;;;24.10;16.05;;;;;;;11.56;85.81;98263.78;5119370;27;20120;-72
2024/03/10 10:51:08;;;;;;;26.58;16.27;;;;;;;11.35;85.33;98239.94;5119228;27;20401;-72
2024/03/10 10:53:38;;;;;;;21.63;15.45;;;;;;;11.56;86.66;98280.53;5116788;27;20197;-70
2024/03/10 10:56:08;;;;;;;21.38;16.02;;;;;;;11.43;84.85;98274.59;5104317;27;20161;-71
2024/03/10 10:58:37;;;;;;;22.65;15.68;;;;;;;11.57;86.03;98298.13;5120339;27;20043;-70
2024/03/10 11:01:05;;;;;;;22.08;15.80;;;;;;;11.54;85.91;98287.78;5129085;27;20063;-71
2024/03/10 11:03:36;;;;;;;22.23;15.85;;;;;;;11.26;86.50;98240.72;5104925;27;20053;-71
2024/03/10 11:06:23;;;;;;;;;;;;;;;11.65;88.92;98283.41;5119600;27;20122;-72
2024/03/10 11:08:54;;;;;;;24.10;16.25;;;;;;;11.65;85.79;98263.00;5119400;27;19937;-71
2024/03/10 11:11:45;;;;;;;22.83;15.82;;;;;;;11.82;84.68;98278.34;5120542;27;20039;-70
2024/03/10 11:14:15;;;;;;;23.33;15.40;;;;;;;11.82;83.95;98280.16;5104835;27;20466;-71
2024/03/10 11:16:44;;;;;;;20.65;15.18;;;;;;;11.79;84.26;98272.47;5125738;27;20055;-71
2024/03/10 11:19:13;;;;;;;24.23;16.67;;;;;;;11.73;82.29;98242.00;5123112;27;20043;-70
2024/03/10 11:21:44;;;;;;;21.73;15.88;;;;;;;11.63;82.67;98217.25;5109148;27;20084;-73
2024/03/10 11:24:17;;;;;;;20.60;15.32;;;;;;;11.79;84.51;98238.84;5117531;27;20076;-70
2024/03/10 11:26:47;;;;;;;22.42;16.02;;;;;;;12.06;82.48;98262.13;5123513;27;20039;-71
2024/03/10 11:29:25;;;;;;;22.88;16.02;;;;;;;12.13;82.22;98250.00;5122877;27;20050;-72
2024/03/10 11:31:57;;;;;;;21.23;15.45;;;;;;;12.14;82.52;98257.00;5122551;27;20047;-68
2024/03/10 11:34:25;;;;;;;21.73;15.73;;;;;;;12.12;80.91;98245.66;5117367;27;20523;-71
2024/03/10 11:36:53;;;;;;;21.80;15.27;;;;;;;11.92;81.11;98212.09;5122566;27;20123;-71
2024/03/10 11:39:22;;;;;;;19.95;15.43;;;;;;;12.34;82.14;98265.03;5125498;27;20039;-73
2024/03/10 11:41:53;;;;;;;22.35;15.63;;;;;;;12.29;81.73;98225.63;5121947;27;20043;-72
2024/03/10 11:44:22;;;;;;;22.98;16.60;;;;;;;12.55;79.15;98237.44;5117367;27;20047;-70
2024/03/10 11:46:50;;;;;;;21.47;15.33;;;;;;;12.75;80.43;98237.47;5122501;27;20039;-71
2024/03/10 11:49:19;;;;;;;21.50;15.20;;;;;;;12.80;76.94;98245.84;5130579;27;20047;-71
2024/03/10 11:51:49;;;;;;;19.58;15.05;;;;;;;12.81;78.99;98237.75;5128351;27;21868;-73